createdAt,value
2018-11-06T00:02:48.320Z,37.50
2018-11-06T00:07:52.465Z,31.97
2018-11-06T00:12:55.840Z,29.57
2018-11-06T00:17:59.307Z,32.15
2018-11-06T00:23:03.369Z,38.45
2018-11-06T00:28:07.172Z,35.83
2018-11-06T00:33:13.957Z,36.90
2018-11-06T00:38:17.539Z,33.23
2018-11-06T00:43:21.711Z,30.75
2018-11-06T00:48:25.102Z,28.60
2018-11-06T00:53:28.448Z,31.20
2018-11-06T00:58:33.179Z,32.35
2018-11-06T01:03:42.078Z,37.13
2018-11-06T01:08:45.727Z,56.23
2018-11-06T01:13:49.107Z,46.15
2018-11-06T01:18:53.311Z,63.92
2018-11-06T01:23:56.622Z,56.55
2018-11-06T01:28:59.961Z,123.97
2018-11-06T01:34:03.281Z,97.95
2018-11-06T01:39:07.967Z,56.18
2018-11-06T01:44:11.237Z,68.12
2018-11-06T01:49:14.516Z,34.95
2018-11-06T01:54:21.912Z,76.77
2018-11-06T01:59:25.971Z,24.12
2018-11-06T02:04:29.267Z,24.23
2018-11-06T02:09:32.544Z,25.00
2018-11-06T02:14:35.821Z,27.07
2018-11-06T02:19:40.620Z,38.02
2018-11-06T02:24:43.936Z,23.03
2018-11-06T02:29:47.196Z,60.47
2018-11-06T02:34:50.464Z,26.30
2018-11-06T02:39:53.763Z,26.90
2018-11-06T02:44:57.138Z,31.00
2018-11-06T02:50:00.632Z,50.65
2018-11-06T02:55:05.651Z,38.00
2018-11-06T03:00:11.769Z,32.78
2018-11-06T03:05:15.281Z,24.70
2018-11-06T03:10:18.770Z,27.13
2018-11-06T03:15:22.115Z,23.70
2018-11-06T03:20:25.561Z,25.57
2018-11-06T03:25:29.539Z,30.68
2018-11-06T03:30:34.554Z,30.27
2018-11-06T03:35:37.952Z,22.20
2018-11-06T03:40:41.467Z,29.18
2018-11-06T03:45:45.236Z,21.70
2018-11-06T03:50:50.942Z,21.10
2018-11-06T03:55:55.282Z,18.77
2018-11-06T04:00:58.657Z,20.52
2018-11-06T04:06:02.159Z,18.95
2018-11-06T04:11:05.668Z,25.15
2018-11-06T04:16:09.195Z,26.33
2018-11-06T04:21:13.162Z,26.97
2018-11-06T04:26:16.636Z,29.92
2018-11-06T04:31:20.020Z,19.67
2018-11-06T04:36:23.349Z,20.40
2018-11-06T04:41:27.162Z,18.17
2018-11-06T04:46:30.556Z,20.20
2018-11-06T04:51:33.918Z,19.80
2018-11-06T04:56:38.137Z,35.15
2018-11-06T05:01:43.430Z,38.38
2018-11-06T05:06:48.672Z,19.30
2018-11-06T05:11:55.577Z,22.60
2018-11-06T05:17:00.515Z,20.45
2018-11-06T05:22:04.032Z,22.85
2018-11-06T05:27:09.131Z,17.80
2018-11-06T05:32:19.205Z,16.43
2018-11-06T05:37:22.737Z,17.90
2018-11-06T05:42:31.785Z,17.50
2018-11-06T05:47:35.551Z,18.80
2018-11-06T05:52:55.106Z,17.75
2018-11-06T05:57:58.585Z,17.80
2018-11-06T06:03:03.200Z,18.60
2018-11-06T06:08:07.868Z,17.73
2018-11-06T06:13:12.112Z,17.27
2018-11-06T06:18:21.868Z,18.50
2018-11-06T06:23:25.273Z,16.90
2018-11-06T06:28:28.837Z,19.23
2018-11-06T06:33:46.614Z,18.00
2018-11-06T06:49:47.413Z,19.13
2018-11-06T06:54:55.836Z,21.80
2018-11-06T06:59:59.281Z,18.67
2018-11-06T07:05:02.710Z,28.27
2018-11-06T07:10:08.266Z,20.60
2018-11-06T07:15:12.929Z,17.40
2018-11-06T07:20:19.850Z,34.13
2018-11-06T07:25:42.444Z,17.13
2018-11-06T07:31:03.210Z,21.17
2018-11-06T07:36:11.560Z,56.77
2018-11-06T07:41:17.730Z,23.27
2018-11-06T07:46:26.393Z,25.45
2018-11-06T07:51:35.174Z,16.52
2018-11-06T07:56:41.725Z,28.25
2018-11-06T08:01:46.367Z,22.00
2018-11-06T08:06:49.800Z,39.75
2018-11-06T08:11:53.232Z,43.48
2018-11-06T08:16:56.643Z,20.30
2018-11-06T08:21:59.998Z,18.90
2018-11-06T08:27:03.407Z,16.45
2018-11-06T08:32:07.216Z,20.65
2018-11-06T08:37:10.479Z,16.00
2018-11-06T08:42:14.152Z,13.83
2018-11-06T08:52:20.179Z,15.50
2018-11-06T09:03:09.029Z,16.45
2018-11-06T09:08:19.820Z,16.73
2018-11-06T09:13:23.884Z,17.23
2018-11-06T09:18:28.693Z,16.60
2018-11-06T09:23:32.269Z,16.85
2018-11-06T09:28:37.276Z,18.75
2018-11-06T09:33:41.236Z,16.30
2018-11-06T09:38:47.910Z,17.20
2018-11-06T09:43:51.493Z,16.40
2018-11-06T09:48:54.832Z,17.33
2018-11-06T09:53:58.474Z,18.48
2018-11-06T09:59:01.911Z,18.50
2018-11-06T10:04:05.739Z,19.45
2018-11-06T10:09:10.077Z,19.77
2018-11-06T10:14:13.479Z,21.30
2018-11-06T10:19:16.787Z,20.37
2018-11-06T10:24:20.181Z,19.20
2018-11-06T10:29:23.527Z,19.67
2018-11-06T10:34:26.896Z,20.40
2018-11-06T10:39:30.263Z,19.12
2018-11-06T10:44:33.655Z,20.17
2018-11-06T10:49:37.102Z,20.23
2018-11-06T10:54:40.544Z,19.70
2018-11-06T10:59:43.958Z,17.80
2018-11-06T11:10:15.318Z,20.53
2018-11-06T11:21:01.816Z,19.35
2018-11-06T11:26:05.283Z,20.20
2018-11-06T11:31:08.829Z,20.20
2018-11-06T11:36:12.238Z,19.35
2018-11-06T11:41:15.616Z,21.00
2018-11-06T11:46:18.961Z,19.70
2018-11-06T11:51:22.307Z,20.15
2018-11-06T11:56:25.691Z,20.50
2018-11-06T12:01:29.056Z,20.43
2018-11-06T12:06:32.612Z,19.90
2018-11-06T12:11:36.060Z,19.57
2018-11-06T12:16:39.734Z,18.30
2018-11-06T12:21:43.081Z,19.17
2018-11-06T12:26:46.523Z,17.67
2018-11-06T12:31:49.906Z,19.60
2018-11-06T12:36:53.525Z,19.10
2018-11-06T12:47:25.921Z,19.80
2018-11-06T12:52:33.345Z,20.27
2018-11-06T12:57:40.559Z,17.45
2018-11-06T13:02:43.998Z,20.13
2018-11-06T13:07:47.507Z,18.00
2018-11-06T13:12:50.909Z,19.25
2018-11-06T13:17:54.861Z,19.60
2018-11-06T13:23:00.452Z,17.98
2018-11-06T13:28:03.875Z,17.07
2018-11-06T13:33:07.259Z,18.48
2018-11-06T13:38:11.311Z,18.40
2018-11-06T13:43:18.656Z,16.52
2018-11-06T13:48:21.983Z,18.85
2018-11-06T13:53:25.685Z,17.60
2018-11-06T13:58:34.797Z,18.27
2018-11-06T14:03:40.538Z,19.25
2018-11-06T14:08:44.664Z,18.40
2018-11-06T14:13:48.050Z,20.08
2018-11-06T14:18:51.740Z,18.10
2018-11-06T15:15:36.041Z,17.50
2018-11-06T15:20:39.416Z,16.37
2018-11-06T15:25:42.963Z,17.10
2018-11-06T15:30:46.457Z,16.87
2018-11-06T15:35:50.237Z,16.50
2018-11-06T15:40:53.828Z,14.30
2018-11-06T15:45:57.178Z,14.73
2018-11-06T15:51:00.614Z,15.07
2018-11-06T15:56:04.066Z,16.02
2018-11-06T16:01:08.318Z,18.35
2018-11-06T16:06:11.745Z,18.30
2018-11-06T16:11:15.233Z,17.98
2018-11-06T16:16:18.725Z,20.30
2018-11-06T16:21:22.385Z,17.02
2018-11-06T16:26:26.085Z,19.50
2018-11-06T16:31:29.518Z,15.63
2018-11-06T16:36:32.791Z,18.70
2018-11-06T16:41:36.233Z,17.90
2018-11-06T16:46:39.617Z,18.40
2018-11-06T16:51:43.033Z,19.48
2018-11-06T16:56:46.623Z,21.55
2018-11-06T17:01:50.257Z,24.15
2018-11-06T17:06:54.184Z,21.10
2018-11-06T17:12:13.956Z,28.45
2018-11-06T17:17:17.588Z,23.97
2018-11-06T17:22:21.161Z,25.77
2018-11-06T17:27:24.723Z,25.67
2018-11-06T17:32:28.780Z,20.90
2018-11-06T17:37:34.417Z,24.72
2018-11-06T17:42:38.137Z,22.93
2018-11-06T17:47:42.149Z,26.62
2018-11-06T17:52:45.889Z,24.80
2018-11-06T17:57:49.500Z,25.27
2018-11-06T18:02:53.146Z,22.27
2018-11-06T18:07:56.680Z,24.95
2018-11-06T18:13:00.334Z,25.70
2018-11-06T18:18:03.805Z,32.03
2018-11-06T18:23:07.290Z,26.85
2018-11-06T18:28:10.624Z,27.85
2018-11-06T18:33:14.117Z,26.63
2018-11-06T18:38:17.631Z,27.37
2018-11-06T18:43:21.109Z,26.60
2018-11-06T18:48:24.506Z,24.90
2018-11-06T18:53:28.112Z,30.57
2018-11-06T19:27:02.011Z,30.57
2018-11-06T19:32:07.177Z,24.85
2018-11-06T19:37:10.808Z,26.20
2018-11-06T19:42:14.259Z,26.23
2018-11-06T19:47:22.474Z,25.88
2018-11-06T19:52:37.616Z,26.90
2018-11-06T19:57:44.961Z,24.27
2018-11-06T20:02:51.526Z,21.87
2018-11-06T20:07:56.881Z,29.20
2018-11-06T20:13:02.608Z,26.70
2018-11-06T20:18:10.694Z,26.77
2018-11-06T20:23:15.152Z,31.52
2018-11-06T20:28:19.651Z,30.90
2018-11-06T20:33:24.344Z,30.23
2018-11-06T20:38:40.516Z,29.20
2018-11-06T20:49:10.430Z,33.97
2018-11-06T20:54:14.124Z,26.75
2018-11-06T20:59:17.532Z,28.50
2018-11-06T21:04:23.509Z,33.45
2018-11-06T21:09:31.369Z,35.23
2018-11-06T21:14:34.893Z,30.88
2018-11-06T21:19:38.274Z,33.95
2018-11-06T21:24:41.605Z,30.12
2018-11-06T21:29:45.183Z,33.42
2018-11-06T21:34:48.554Z,31.02
2018-11-06T21:39:52.666Z,32.93
2018-11-06T21:44:56.260Z,28.23
2018-11-06T21:50:00.261Z,34.60
2018-11-06T21:55:03.711Z,31.93
2018-11-06T22:00:09.521Z,33.38
2018-11-06T22:05:13.960Z,34.00
2018-11-06T22:10:18.845Z,32.53
2018-11-06T22:15:22.209Z,32.15
2018-11-06T22:20:25.599Z,30.65
2018-11-06T22:25:29.142Z,34.15
2018-11-06T22:30:32.573Z,38.25
2018-11-06T22:35:36.003Z,29.82
2018-11-06T22:40:39.445Z,38.20
2018-11-06T22:45:42.825Z,38.63
2018-11-06T22:50:46.090Z,38.13
2018-11-06T22:55:49.476Z,34.85
2018-11-06T23:00:59.240Z,32.70
2018-11-06T23:06:02.669Z,38.28
2018-11-06T23:11:06.083Z,33.28
2018-11-06T23:16:10.181Z,35.63
2018-11-06T23:21:13.624Z,33.73
2018-11-06T23:26:16.948Z,37.60
2018-11-06T23:31:20.758Z,38.38
2018-11-06T23:36:24.108Z,32.28
2018-11-06T23:41:27.593Z,29.82
2018-11-06T23:46:31.032Z,31.15
2018-11-06T23:51:34.373Z,31.95
2018-11-06T23:56:37.785Z,35.25
